Aeroporto :
LOGIN :

Iscrizione | Disclaimer

   EN    FR    IT 

 










Sommario :    VFR   VFR Marginale   IFR   IFR Intensivo   IFR Molto Intensivo
Visibilità : 
Base nubi : 
>= 8 km
>= 3000ft
5 / 8 km
1000 / 3000 ft
1500m / 5 km
500 / 1000 ft
800 / 1500m
200 / 500 ft
< 800m
< 200 ft
Simboli :   Temporali  Nebbia  Neve Forte  Precipitazioni Forti  Vento > 20 kt
SIGMETs :   Varie  Temporali  Ghiacco  Turbolenza  Onda orograficha  Ceneri Vulcaniche







- Altitudine del aeroporto : 776 ft
- Codice IATA : RMS


ETAR - Ramstein Air Base

ULTIMO METAR :
  • 161956Z AUTO 00000KT 9999 CLR 15/13 A3017 RMK AO2 SLP215 T01520129 $

METARs OBSOLETI :
  • 161856Z AUTO 00000KT 9999 CLR 21/12 A3016 RMK AO2 SLP210 T02070121 $
  • 161756Z AUTO 26004KT 9999 FEW090 23/12 A3016 RMK AO2 SLP210 T02270120 10227 20198 56001 $

TAF TAF ETAR
Valido dal 16 a 18 ore il 18 a 00 ore UTC


161802Z 1618/1800 VRB06KT 9999 SCT050 QNH3017INS
BECMG 1702/1703 02003KT 9999 SCT050 QNH3008INS
BECMG 1720/1721 07006KT 9999 BKN060 QNH3005INS TX26/1715Z TN13/1703Z
Nessun NOTAM noto per questo aeroporto.



MetMap, La meteo Aeronautica in un colpo d'occhio ! - Copyright ORBIFLY Dicembre 2007 - Disclaimer

ORBIFLY MET'MAP TEAM :

Programmazione e sviluppo : Alexandra Zaïnal
Concezione e sviluppo : Baudouin d'Aumeries
Co-Programmazione e sviluppo : Marc-Olivier Méhu
Supporto tecnico e logistico : Manuel Goepfert
Aiuto per la traduzione : Arnaldo La Scala

Contatto : metmap@orbifly.com




FONTI E CREDITI :

   NOAA